sensor_id;sensor_type;location;lat;lon;timestamp;P1;durP1;ratioP1;P2;durP2;ratioP2
24277;SDS011;12394;42.692;23.314;2023-12-07T00:01:54;21.80;;;14.33;;
24277;SDS011;12394;42.692;23.314;2023-12-07T00:04:20;23.43;;;15.53;;
24277;SDS011;12394;42.692;23.314;2023-12-07T00:06:45;22.73;;;14.70;;
24277;SDS011;12394;42.692;23.314;2023-12-07T00:09:11;27.00;;;16.50;;
24277;SDS011;12394;42.692;23.314;2023-12-07T00:11:36;22.53;;;16.07;;
24277;SDS011;12394;42.692;23.314;2023-12-07T00:14:02;24.27;;;16.07;;
24277;SDS011;12394;42.692;23.314;2023-12-07T00:16:27;25.23;;;15.90;;
24277;SDS011;12394;42.692;23.314;2023-12-07T00:18:53;25.97;;;16.03;;
24277;SDS011;12394;42.692;23.314;2023-12-07T00:21:18;24.50;;;16.67;;
24277;SDS011;12394;42.692;23.314;2023-12-07T00:23:44;23.30;;;16.77;;
24277;SDS011;12394;42.692;23.314;2023-12-07T00:26:09;27.50;;;16.83;;
24277;SDS011;12394;42.692;23.314;2023-12-07T00:28:35;23.40;;;16.77;;
24277;SDS011;12394;42.692;23.314;2023-12-07T00:31:01;25.00;;;17.07;;
24277;SDS011;12394;42.692;23.314;2023-12-07T00:33:27;24.57;;;15.80;;
24277;SDS011;12394;42.692;23.314;2023-12-07T00:35:52;27.47;;;15.33;;
24277;SDS011;12394;42.692;23.314;2023-12-07T00:38:18;22.60;;;15.63;;
24277;SDS011;12394;42.692;23.314;2023-12-07T00:40:43;26.53;;;17.10;;
24277;SDS011;12394;42.692;23.314;2023-12-07T00:43:09;26.63;;;16.83;;
24277;SDS011;12394;42.692;23.314;2023-12-07T00:45:34;31.40;;;19.57;;
24277;SDS011;12394;42.692;23.314;2023-12-07T00:48:00;31.10;;;20.57;;
24277;SDS011;12394;42.692;23.314;2023-12-07T00:50:25;29.97;;;19.07;;
24277;SDS011;12394;42.692;23.314;2023-12-07T00:52:51;31.17;;;19.83;;
24277;SDS011;12394;42.692;23.314;2023-12-07T00:55:16;30.90;;;19.93;;
24277;SDS011;12394;42.692;23.314;2023-12-07T00:57:42;29.37;;;19.83;;
24277;SDS011;12394;42.692;23.314;2023-12-07T01:00:07;34.30;;;20.47;;
24277;SDS011;12394;42.692;23.314;2023-12-07T01:02:35;30.77;;;19.27;;
24277;SDS011;12394;42.692;23.314;2023-12-07T01:05:00;34.97;;;20.00;;
24277;SDS011;12394;42.692;23.314;2023-12-07T01:07:26;35.57;;;22.03;;
24277;SDS011;12394;42.692;23.314;2023-12-07T01:09:52;37.53;;;21.80;;
24277;SDS011;12394;42.692;23.314;2023-12-07T01:12:17;35.37;;;22.53;;
24277;SDS011;12394;42.692;23.314;2023-12-07T01:14:43;37.97;;;23.10;;
24277;SDS011;12394;42.692;23.314;2023-12-07T01:17:08;35.30;;;21.53;;
24277;SDS011;12394;42.692;23.314;2023-12-07T01:19:34;34.07;;;20.57;;
24277;SDS011;12394;42.692;23.314;2023-12-07T01:21:59;34.90;;;21.43;;
24277;SDS011;12394;42.692;23.314;2023-12-07T01:24:25;35.97;;;22.23;;
24277;SDS011;12394;42.692;23.314;2023-12-07T01:26:51;36.30;;;22.63;;
24277;SDS011;12394;42.692;23.314;2023-12-07T01:29:16;34.87;;;22.40;;
24277;SDS011;12394;42.692;23.314;2023-12-07T01:31:42;38.13;;;22.67;;
24277;SDS011;12394;42.692;23.314;2023-12-07T01:34:08;33.93;;;21.60;;
24277;SDS011;12394;42.692;23.314;2023-12-07T01:36:34;37.60;;;21.83;;
24277;SDS011;12394;42.692;23.314;2023-12-07T01:38:59;35.53;;;21.83;;
24277;SDS011;12394;42.692;23.314;2023-12-07T01:41:25;35.60;;;22.10;;
24277;SDS011;12394;42.692;23.314;2023-12-07T01:43:50;31.57;;;20.57;;
24277;SDS011;12394;42.692;23.314;2023-12-07T01:46:16;32.83;;;21.57;;
24277;SDS011;12394;42.692;23.314;2023-12-07T01:48:42;30.80;;;18.80;;
24277;SDS011;12394;42.692;23.314;2023-12-07T01:51:09;29.93;;;19.27;;
24277;SDS011;12394;42.692;23.314;2023-12-07T01:53:37;35.03;;;20.50;;
24277;SDS011;12394;42.692;23.314;2023-12-07T01:56:04;28.77;;;18.53;;
24277;SDS011;12394;42.692;23.314;2023-12-07T01:58:32;29.93;;;18.67;;
24277;SDS011;12394;42.692;23.314;2023-12-07T02:00:57;28.13;;;18.07;;
24277;SDS011;12394;42.692;23.314;2023-12-07T02:03:23;28.53;;;19.10;;
24277;SDS011;12394;42.692;23.314;2023-12-07T02:05:48;30.23;;;18.90;;
24277;SDS011;12394;42.692;23.314;2023-12-07T02:08:14;30.47;;;20.53;;
24277;SDS011;12394;42.692;23.314;2023-12-07T02:10:40;30.70;;;18.77;;
24277;SDS011;12394;42.692;23.314;2023-12-07T02:13:06;29.33;;;19.10;;
24277;SDS011;12394;42.692;23.314;2023-12-07T02:15:32;28.90;;;18.83;;
24277;SDS011;12394;42.692;23.314;2023-12-07T02:18:02;29.37;;;18.70;;
24277;SDS011;12394;42.692;23.314;2023-12-07T02:20:55;30.60;;;18.10;;
24277;SDS011;12394;42.692;23.314;2023-12-07T02:23:29;32.17;;;19.20;;
24277;SDS011;12394;42.692;23.314;2023-12-07T02:29:13;30.80;;;20.27;;
24277;SDS011;12394;42.692;23.314;2023-12-07T02:31:38;30.33;;;19.37;;
24277;SDS011;12394;42.692;23.314;2023-12-07T02:34:04;29.83;;;19.70;;
24277;SDS011;12394;42.692;23.314;2023-12-07T02:36:29;29.63;;;18.90;;
24277;SDS011;12394;42.692;23.314;2023-12-07T02:38:58;33.73;;;21.10;;
24277;SDS011;12394;42.692;23.314;2023-12-07T02:41:28;31.60;;;20.77;;
24277;SDS011;12394;42.692;23.314;2023-12-07T02:43:56;33.77;;;21.30;;
24277;SDS011;12394;42.692;23.314;2023-12-07T02:46:23;30.60;;;20.43;;
24277;SDS011;12394;42.692;23.314;2023-12-07T02:48:49;35.97;;;21.90;;
24277;SDS011;12394;42.692;23.314;2023-12-07T02:51:15;32.10;;;20.73;;
24277;SDS011;12394;42.692;23.314;2023-12-07T02:53:40;34.80;;;22.43;;
24277;SDS011;12394;42.692;23.314;2023-12-07T02:56:06;36.80;;;21.70;;
24277;SDS011;12394;42.692;23.314;2023-12-07T02:58:32;34.43;;;21.33;;
24277;SDS011;12394;42.692;23.314;2023-12-07T03:00:57;35.93;;;20.93;;
24277;SDS011;12394;42.692;23.314;2023-12-07T03:03:24;32.47;;;21.33;;
24277;SDS011;12394;42.692;23.314;2023-12-07T03:05:49;35.90;;;20.83;;
24277;SDS011;12394;42.692;23.314;2023-12-07T03:08:15;30.80;;;19.73;;
24277;SDS011;12394;42.692;23.314;2023-12-07T03:10:40;28.07;;;19.00;;
24277;SDS011;12394;42.692;23.314;2023-12-07T03:13:06;26.60;;;17.17;;
24277;SDS011;12394;42.692;23.314;2023-12-07T03:15:31;27.63;;;17.07;;
24277;SDS011;12394;42.692;23.314;2023-12-07T03:17:57;28.07;;;17.90;;
24277;SDS011;12394;42.692;23.314;2023-12-07T03:20:22;26.83;;;16.13;;
24277;SDS011;12394;42.692;23.314;2023-12-07T03:22:48;24.20;;;14.53;;
24277;SDS011;12394;42.692;23.314;2023-12-07T03:25:13;24.97;;;15.57;;
24277;SDS011;12394;42.692;23.314;2023-12-07T03:27:39;23.57;;;15.87;;
24277;SDS011;12394;42.692;23.314;2023-12-07T03:30:04;27.63;;;16.63;;
24277;SDS011;12394;42.692;23.314;2023-12-07T03:32:30;25.97;;;14.80;;
24277;SDS011;12394;42.692;23.314;2023-12-07T03:34:56;22.57;;;14.63;;
24277;SDS011;12394;42.692;23.314;2023-12-07T03:37:21;22.63;;;14.07;;
24277;SDS011;12394;42.692;23.314;2023-12-07T03:39:47;21.00;;;14.00;;
24277;SDS011;12394;42.692;23.314;2023-12-07T03:42:12;22.73;;;15.27;;
24277;SDS011;12394;42.692;23.314;2023-12-07T03:44:38;17.90;;;12.47;;
24277;SDS011;12394;42.692;23.314;2023-12-07T03:47:03;18.37;;;12.93;;
24277;SDS011;12394;42.692;23.314;2023-12-07T03:49:29;19.70;;;12.50;;
24277;SDS011;12394;42.692;23.314;2023-12-07T03:51:54;17.03;;;12.70;;
24277;SDS011;12394;42.692;23.314;2023-12-07T03:54:20;17.17;;;11.93;;
24277;SDS011;12394;42.692;23.314;2023-12-07T03:56:45;17.27;;;12.47;;
24277;SDS011;12394;42.692;23.314;2023-12-07T03:59:11;20.77;;;13.17;;
24277;SDS011;12394;42.692;23.314;2023-12-07T04:01:36;17.93;;;11.20;;
24277;SDS011;12394;42.692;23.314;2023-12-07T04:04:02;20.13;;;12.80;;
24277;SDS011;12394;42.692;23.314;2023-12-07T04:06:27;19.07;;;13.30;;
24277;SDS011;12394;42.692;23.314;2023-12-07T04:08:53;20.33;;;12.77;;
24277;SDS011;12394;42.692;23.314;2023-12-07T04:11:18;24.43;;;13.67;;
24277;SDS011;12394;42.692;23.314;2023-12-07T04:13:44;18.20;;;12.50;;
24277;SDS011;12394;42.692;23.314;2023-12-07T04:16:10;21.93;;;13.67;;
24277;SDS011;12394;42.692;23.314;2023-12-07T04:18:36;20.63;;;13.93;;
24277;SDS011;12394;42.692;23.314;2023-12-07T04:21:02;21.07;;;13.27;;
24277;SDS011;12394;42.692;23.314;2023-12-07T04:23:28;21.63;;;14.97;;
24277;SDS011;12394;42.692;23.314;2023-12-07T04:25:53;22.40;;;14.70;;
24277;SDS011;12394;42.692;23.314;2023-12-07T04:28:19;20.20;;;14.20;;
24277;SDS011;12394;42.692;23.314;2023-12-07T04:30:45;23.70;;;14.97;;
24277;SDS011;12394;42.692;23.314;2023-12-07T04:33:10;24.80;;;15.20;;
24277;SDS011;12394;42.692;23.314;2023-12-07T04:35:36;23.23;;;15.07;;
24277;SDS011;12394;42.692;23.314;2023-12-07T04:38:01;23.73;;;15.53;;
24277;SDS011;12394;42.692;23.314;2023-12-07T04:40:27;21.03;;;14.87;;
24277;SDS011;12394;42.692;23.314;2023-12-07T04:42:52;25.07;;;15.90;;
24277;SDS011;12394;42.692;23.314;2023-12-07T04:45:18;22.67;;;15.73;;
24277;SDS011;12394;42.692;23.314;2023-12-07T04:47:43;25.07;;;16.20;;
24277;SDS011;12394;42.692;23.314;2023-12-07T04:50:10;23.87;;;15.20;;
24277;SDS011;12394;42.692;23.314;2023-12-07T04:52:35;27.67;;;16.10;;
24277;SDS011;12394;42.692;23.314;2023-12-07T04:55:01;23.33;;;15.70;;
24277;SDS011;12394;42.692;23.314;2023-12-07T04:57:27;25.77;;;15.57;;
24277;SDS011;12394;42.692;23.314;2023-12-07T04:59:52;25.20;;;16.37;;
24277;SDS011;12394;42.692;23.314;2023-12-07T05:02:17;25.00;;;16.20;;
24277;SDS011;12394;42.692;23.314;2023-12-07T05:04:43;25.70;;;17.73;;
24277;SDS011;12394;42.692;23.314;2023-12-07T05:07:12;29.80;;;18.57;;
24277;SDS011;12394;42.692;23.314;2023-12-07T05:09:38;27.30;;;18.50;;
24277;SDS011;12394;42.692;23.314;2023-12-07T05:12:04;28.13;;;19.23;;
24277;SDS011;12394;42.692;23.314;2023-12-07T05:14:33;25.33;;;17.57;;
24277;SDS011;12394;42.692;23.314;2023-12-07T05:16:59;25.33;;;16.93;;
24277;SDS011;12394;42.692;23.314;2023-12-07T05:19:26;21.83;;;14.60;;
24277;SDS011;12394;42.692;23.314;2023-12-07T05:21:51;24.23;;;15.40;;
24277;SDS011;12394;42.692;23.314;2023-12-07T05:24:17;22.90;;;15.47;;
24277;SDS011;12394;42.692;23.314;2023-12-07T05:26:43;24.27;;;16.03;;
24277;SDS011;12394;42.692;23.314;2023-12-07T05:29:13;23.50;;;15.60;;
24277;SDS011;12394;42.692;23.314;2023-12-07T05:31:39;24.87;;;16.00;;
24277;SDS011;12394;42.692;23.314;2023-12-07T05:34:04;28.67;;;16.87;;
24277;SDS011;12394;42.692;23.314;2023-12-07T05:36:30;27.30;;;16.87;;
24277;SDS011;12394;42.692;23.314;2023-12-07T05:38:56;25.70;;;17.90;;
24277;SDS011;12394;42.692;23.314;2023-12-07T05:41:22;25.73;;;16.47;;
24277;SDS011;12394;42.692;23.314;2023-12-07T05:43:48;23.97;;;16.73;;
24277;SDS011;12394;42.692;23.314;2023-12-07T05:46:14;27.07;;;17.63;;
24277;SDS011;12394;42.692;23.314;2023-12-07T05:48:40;27.37;;;17.77;;
24277;SDS011;12394;42.692;23.314;2023-12-07T05:51:06;29.70;;;19.30;;
24277;SDS011;12394;42.692;23.314;2023-12-07T05:53:41;24.90;;;17.67;;
24277;SDS011;12394;42.692;23.314;2023-12-07T05:56:07;26.07;;;17.47;;
24277;SDS011;12394;42.692;23.314;2023-12-07T05:58:32;22.83;;;16.30;;
24277;SDS011;12394;42.692;23.314;2023-12-07T06:00:59;21.93;;;15.87;;
24277;SDS011;12394;42.692;23.314;2023-12-07T06:03:26;24.43;;;17.13;;
24277;SDS011;12394;42.692;23.314;2023-12-07T06:05:51;27.17;;;17.33;;
24277;SDS011;12394;42.692;23.314;2023-12-07T06:08:17;25.63;;;17.60;;
24277;SDS011;12394;42.692;23.314;2023-12-07T06:10:43;22.50;;;15.50;;
24277;SDS011;12394;42.692;23.314;2023-12-07T06:13:08;25.63;;;14.47;;
24277;SDS011;12394;42.692;23.314;2023-12-07T06:15:35;22.43;;;14.97;;
24277;SDS011;12394;42.692;23.314;2023-12-07T06:18:01;26.93;;;16.00;;
24277;SDS011;12394;42.692;23.314;2023-12-07T06:20:26;23.53;;;15.87;;
24277;SDS011;12394;42.692;23.314;2023-12-07T06:22:52;24.77;;;16.23;;
24277;SDS011;12394;42.692;23.314;2023-12-07T06:25:17;25.90;;;16.10;;
24277;SDS011;12394;42.692;23.314;2023-12-07T06:27:43;27.80;;;17.00;;
24277;SDS011;12394;42.692;23.314;2023-12-07T06:30:09;23.40;;;17.07;;
24277;SDS011;12394;42.692;23.314;2023-12-07T06:32:35;24.27;;;16.43;;
24277;SDS011;12394;42.692;23.314;2023-12-07T06:35:02;25.80;;;18.07;;
24277;SDS011;12394;42.692;23.314;2023-12-07T06:37:29;22.97;;;15.23;;
24277;SDS011;12394;42.692;23.314;2023-12-07T06:39:55;21.53;;;15.40;;
24277;SDS011;12394;42.692;23.314;2023-12-07T06:42:21;25.97;;;15.83;;
24277;SDS011;12394;42.692;23.314;2023-12-07T06:44:47;21.10;;;14.37;;
24277;SDS011;12394;42.692;23.314;2023-12-07T06:47:14;19.80;;;13.10;;
24277;SDS011;12394;42.692;23.314;2023-12-07T06:49:41;19.83;;;12.30;;
24277;SDS011;12394;42.692;23.314;2023-12-07T06:52:06;22.30;;;14.43;;
24277;SDS011;12394;42.692;23.314;2023-12-07T06:54:33;19.13;;;12.80;;
24277;SDS011;12394;42.692;23.314;2023-12-07T06:56:58;16.47;;;11.63;;
24277;SDS011;12394;42.692;23.314;2023-12-07T06:59:24;17.00;;;11.17;;
24277;SDS011;12394;42.692;23.314;2023-12-07T07:01:49;16.33;;;11.33;;
24277;SDS011;12394;42.692;23.314;2023-12-07T07:04:15;15.27;;;11.33;;
24277;SDS011;12394;42.692;23.314;2023-12-07T07:06:41;21.03;;;12.30;;
24277;SDS011;12394;42.692;23.314;2023-12-07T07:09:07;17.13;;;11.77;;
24277;SDS011;12394;42.692;23.314;2023-12-07T07:11:33;17.37;;;12.50;;
24277;SDS011;12394;42.692;23.314;2023-12-07T07:13:59;22.30;;;12.87;;
24277;SDS011;12394;42.692;23.314;2023-12-07T07:16:25;18.30;;;13.17;;
24277;SDS011;12394;42.692;23.314;2023-12-07T07:18:51;14.53;;;10.07;;
24277;SDS011;12394;42.692;23.314;2023-12-07T07:21:16;17.50;;;11.93;;
24277;SDS011;12394;42.692;23.314;2023-12-07T07:23:42;18.30;;;11.33;;
24277;SDS011;12394;42.692;23.314;2023-12-07T07:26:08;18.80;;;13.60;;
24277;SDS011;12394;42.692;23.314;2023-12-07T07:28:33;19.60;;;12.63;;
24277;SDS011;12394;42.692;23.314;2023-12-07T07:30:59;19.43;;;13.93;;
24277;SDS011;12394;42.692;23.314;2023-12-07T07:33:25;21.97;;;13.27;;
24277;SDS011;12394;42.692;23.314;2023-12-07T07:35:51;19.43;;;13.03;;
24277;SDS011;12394;42.692;23.314;2023-12-07T07:38:18;19.37;;;12.90;;
24277;SDS011;12394;42.692;23.314;2023-12-07T07:40:45;21.47;;;11.50;;
24277;SDS011;12394;42.692;23.314;2023-12-07T07:43:12;15.70;;;12.10;;
24277;SDS011;12394;42.692;23.314;2023-12-07T07:45:37;17.13;;;11.30;;
24277;SDS011;12394;42.692;23.314;2023-12-07T07:48:03;15.90;;;11.27;;
24277;SDS011;12394;42.692;23.314;2023-12-07T07:50:29;14.70;;;11.50;;
24277;SDS011;12394;42.692;23.314;2023-12-07T07:52:54;12.40;;;9.17;;
24277;SDS011;12394;42.692;23.314;2023-12-07T07:55:21;10.97;;;8.07;;
24277;SDS011;12394;42.692;23.314;2023-12-07T07:57:46;12.87;;;8.53;;
24277;SDS011;12394;42.692;23.314;2023-12-07T08:00:12;9.60;;;6.70;;
24277;SDS011;12394;42.692;23.314;2023-12-07T08:02:38;11.87;;;7.40;;
24277;SDS011;12394;42.692;23.314;2023-12-07T08:05:05;9.47;;;6.97;;
24277;SDS011;12394;42.692;23.314;2023-12-07T08:07:31;8.43;;;6.67;;
24277;SDS011;12394;42.692;23.314;2023-12-07T08:09:58;10.70;;;6.17;;
24277;SDS011;12394;42.692;23.314;2023-12-07T08:12:24;8.43;;;5.93;;
24277;SDS011;12394;42.692;23.314;2023-12-07T08:14:51;8.77;;;6.63;;
24277;SDS011;12394;42.692;23.314;2023-12-07T08:17:17;10.33;;;5.70;;
24277;SDS011;12394;42.692;23.314;2023-12-07T08:20:06;8.27;;;5.57;;
24277;SDS011;12394;42.692;23.314;2023-12-07T08:22:32;7.07;;;5.43;;
24277;SDS011;12394;42.692;23.314;2023-12-07T08:24:58;7.57;;;5.80;;
24277;SDS011;12394;42.692;23.314;2023-12-07T08:27:25;5.47;;;4.57;;
24277;SDS011;12394;42.692;23.314;2023-12-07T08:29:50;7.53;;;5.60;;
24277;SDS011;12394;42.692;23.314;2023-12-07T08:32:16;6.67;;;4.67;;
24277;SDS011;12394;42.692;23.314;2023-12-07T08:35:02;6.13;;;5.37;;
24277;SDS011;12394;42.692;23.314;2023-12-07T08:37:28;10.40;;;4.70;;
24277;SDS011;12394;42.692;23.314;2023-12-07T08:39:54;9.33;;;5.57;;
24277;SDS011;12394;42.692;23.314;2023-12-07T08:42:19;6.37;;;4.63;;
24277;SDS011;12394;42.692;23.314;2023-12-07T08:44:45;5.33;;;4.47;;
24277;SDS011;12394;42.692;23.314;2023-12-07T08:47:11;6.03;;;4.30;;
24277;SDS011;12394;42.692;23.314;2023-12-07T08:49:36;8.17;;;4.27;;
24277;SDS011;12394;42.692;23.314;2023-12-07T08:52:03;7.17;;;4.40;;
24277;SDS011;12394;42.692;23.314;2023-12-07T08:54:29;7.87;;;7.07;;
24277;SDS011;12394;42.692;23.314;2023-12-07T08:56:55;6.93;;;4.30;;
24277;SDS011;12394;42.692;23.314;2023-12-07T08:59:20;7.07;;;4.93;;
24277;SDS011;12394;42.692;23.314;2023-12-07T09:01:46;6.70;;;3.90;;
24277;SDS011;12394;42.692;23.314;2023-12-07T09:04:11;3.70;;;3.17;;
24277;SDS011;12394;42.692;23.314;2023-12-07T09:06:37;4.73;;;3.30;;
24277;SDS011;12394;42.692;23.314;2023-12-07T09:09:05;5.60;;;3.80;;
24277;SDS011;12394;42.692;23.314;2023-12-07T09:11:33;3.90;;;3.03;;
24277;SDS011;12394;42.692;23.314;2023-12-07T09:13:59;4.37;;;3.10;;
24277;SDS011;12394;42.692;23.314;2023-12-07T09:16:27;6.17;;;3.63;;
24277;SDS011;12394;42.692;23.314;2023-12-07T09:18:53;4.90;;;3.50;;
24277;SDS011;12394;42.692;23.314;2023-12-07T09:21:19;5.17;;;3.30;;
24277;SDS011;12394;42.692;23.314;2023-12-07T09:23:45;6.40;;;3.30;;
24277;SDS011;12394;42.692;23.314;2023-12-07T09:26:10;6.53;;;3.83;;
24277;SDS011;12394;42.692;23.314;2023-12-07T09:28:36;9.30;;;6.10;;
24277;SDS011;12394;42.692;23.314;2023-12-07T09:31:04;4.10;;;3.43;;
24277;SDS011;12394;42.692;23.314;2023-12-07T09:33:31;4.37;;;3.57;;
24277;SDS011;12394;42.692;23.314;2023-12-07T09:35:56;5.97;;;4.27;;
24277;SDS011;12394;42.692;23.314;2023-12-07T09:38:22;5.33;;;3.93;;
24277;SDS011;12394;42.692;23.314;2023-12-07T09:40:52;6.47;;;5.00;;
24277;SDS011;12394;42.692;23.314;2023-12-07T09:43:18;4.10;;;3.27;;
24277;SDS011;12394;42.692;23.314;2023-12-07T09:45:44;4.10;;;3.07;;
24277;SDS011;12394;42.692;23.314;2023-12-07T09:48:11;6.07;;;4.57;;
24277;SDS011;12394;42.692;23.314;2023-12-07T09:50:37;4.30;;;3.63;;
24277;SDS011;12394;42.692;23.314;2023-12-07T09:53:03;4.73;;;3.90;;
24277;SDS011;12394;42.692;23.314;2023-12-07T09:55:30;4.37;;;3.67;;
24277;SDS011;12394;42.692;23.314;2023-12-07T09:57:56;5.37;;;4.20;;
24277;SDS011;12394;42.692;23.314;2023-12-07T10:00:23;6.53;;;4.83;;
24277;SDS011;12394;42.692;23.314;2023-12-07T10:02:50;6.07;;;4.63;;
24277;SDS011;12394;42.692;23.314;2023-12-07T10:05:19;8.40;;;3.50;;
24277;SDS011;12394;42.692;23.314;2023-12-07T10:07:48;4.23;;;3.60;;
24277;SDS011;12394;42.692;23.314;2023-12-07T10:10:17;5.50;;;4.57;;
24277;SDS011;12394;42.692;23.314;2023-12-07T10:13:02;5.00;;;3.70;;
24277;SDS011;12394;42.692;23.314;2023-12-07T10:16:01;5.43;;;4.27;;
24277;SDS011;12394;42.692;23.314;2023-12-07T10:18:44;3.93;;;3.03;;
24277;SDS011;12394;42.692;23.314;2023-12-07T10:21:10;6.47;;;3.20;;
24277;SDS011;12394;42.692;23.314;2023-12-07T10:23:37;7.20;;;4.90;;
24277;SDS011;12394;42.692;23.314;2023-12-07T10:26:04;6.10;;;3.93;;
24277;SDS011;12394;42.692;23.314;2023-12-07T10:28:35;4.20;;;3.27;;
24277;SDS011;12394;42.692;23.314;2023-12-07T10:31:21;3.10;;;2.40;;
24277;SDS011;12394;42.692;23.314;2023-12-07T10:33:49;4.20;;;2.63;;
24277;SDS011;12394;42.692;23.314;2023-12-07T10:36:14;2.23;;;2.03;;
24277;SDS011;12394;42.692;23.314;2023-12-07T10:38:40;2.50;;;1.80;;
24277;SDS011;12394;42.692;23.314;2023-12-07T10:41:12;1.87;;;1.67;;
24277;SDS011;12394;42.692;23.314;2023-12-07T10:43:41;2.57;;;2.07;;
24277;SDS011;12394;42.692;23.314;2023-12-07T10:46:09;3.93;;;2.50;;
24277;SDS011;12394;42.692;23.314;2023-12-07T10:48:46;3.73;;;2.40;;
24277;SDS011;12394;42.692;23.314;2023-12-07T10:54:07;6.47;;;4.43;;
24277;SDS011;12394;42.692;23.314;2023-12-07T10:56:40;6.83;;;5.23;;
24277;SDS011;12394;42.692;23.314;2023-12-07T10:59:09;12.03;;;9.50;;
24277;SDS011;12394;42.692;23.314;2023-12-07T11:01:38;12.53;;;6.20;;
24277;SDS011;12394;42.692;23.314;2023-12-07T11:04:05;7.50;;;5.30;;
24277;SDS011;12394;42.692;23.314;2023-12-07T11:06:32;8.00;;;4.17;;
24277;SDS011;12394;42.692;23.314;2023-12-07T11:09:00;5.57;;;4.40;;
24277;SDS011;12394;42.692;23.314;2023-12-07T11:11:31;6.33;;;3.60;;
24277;SDS011;12394;42.692;23.314;2023-12-07T11:14:07;4.00;;;3.33;;
24277;SDS011;12394;42.692;23.314;2023-12-07T11:16:43;5.77;;;3.83;;
24277;SDS011;12394;42.692;23.314;2023-12-07T11:21:54;3.87;;;3.00;;
24277;SDS011;12394;42.692;23.314;2023-12-07T11:24:23;4.57;;;3.70;;
24277;SDS011;12394;42.692;23.314;2023-12-07T11:26:51;5.27;;;3.60;;
24277;SDS011;12394;42.692;23.314;2023-12-07T11:29:23;6.10;;;3.67;;
24277;SDS011;12394;42.692;23.314;2023-12-07T11:31:50;4.33;;;3.60;;
24277;SDS011;12394;42.692;23.314;2023-12-07T11:34:37;6.43;;;3.93;;
24277;SDS011;12394;42.692;23.314;2023-12-07T11:37:04;8.53;;;5.20;;
24277;SDS011;12394;42.692;23.314;2023-12-07T11:39:50;8.83;;;6.00;;
24277;SDS011;12394;42.692;23.314;2023-12-07T11:42:17;7.53;;;5.57;;
24277;SDS011;12394;42.692;23.314;2023-12-07T11:44:47;9.83;;;6.20;;
24277;SDS011;12394;42.692;23.314;2023-12-07T11:47:17;14.40;;;8.00;;
24277;SDS011;12394;42.692;23.314;2023-12-07T11:49:47;16.40;;;9.87;;
24277;SDS011;12394;42.692;23.314;2023-12-07T11:52:14;14.57;;;11.17;;
24277;SDS011;12394;42.692;23.314;2023-12-07T11:54:59;15.67;;;8.87;;
24277;SDS011;12394;42.692;23.314;2023-12-07T11:57:25;11.00;;;8.10;;
24277;SDS011;12394;42.692;23.314;2023-12-07T11:59:51;9.87;;;7.37;;
24277;SDS011;12394;42.692;23.314;2023-12-07T12:02:17;8.60;;;6.97;;
24277;SDS011;12394;42.692;23.314;2023-12-07T12:04:42;9.03;;;6.10;;
24277;SDS011;12394;42.692;23.314;2023-12-07T12:07:08;7.73;;;4.80;;
24277;SDS011;12394;42.692;23.314;2023-12-07T12:09:36;8.43;;;5.90;;
24277;SDS011;12394;42.692;23.314;2023-12-07T12:12:02;7.23;;;5.23;;
24277;SDS011;12394;42.692;23.314;2023-12-07T12:14:28;8.73;;;5.67;;
24277;SDS011;12394;42.692;23.314;2023-12-07T12:16:55;8.27;;;5.80;;
24277;SDS011;12394;42.692;23.314;2023-12-07T12:19:22;7.53;;;4.97;;
24277;SDS011;12394;42.692;23.314;2023-12-07T12:21:49;6.77;;;5.33;;
24277;SDS011;12394;42.692;23.314;2023-12-07T12:24:14;10.90;;;6.77;;
24277;SDS011;12394;42.692;23.314;2023-12-07T12:26:41;6.90;;;5.20;;
24277;SDS011;12394;42.692;23.314;2023-12-07T12:29:08;7.83;;;5.20;;
24277;SDS011;12394;42.692;23.314;2023-12-07T12:31:34;8.50;;;5.93;;
24277;SDS011;12394;42.692;23.314;2023-12-07T12:34:01;9.77;;;6.77;;
24277;SDS011;12394;42.692;23.314;2023-12-07T12:36:27;7.37;;;4.97;;
24277;SDS011;12394;42.692;23.314;2023-12-07T12:38:56;6.23;;;5.10;;
24277;SDS011;12394;42.692;23.314;2023-12-07T12:41:22;5.53;;;4.30;;
24277;SDS011;12394;42.692;23.314;2023-12-07T12:43:48;4.70;;;3.93;;
24277;SDS011;12394;42.692;23.314;2023-12-07T12:46:18;4.90;;;3.73;;
24277;SDS011;12394;42.692;23.314;2023-12-07T12:48:58;4.40;;;3.20;;
24277;SDS011;12394;42.692;23.314;2023-12-07T12:51:26;6.23;;;3.90;;
24277;SDS011;12394;42.692;23.314;2023-12-07T12:53:53;4.53;;;3.17;;
24277;SDS011;12394;42.692;23.314;2023-12-07T12:56:20;5.27;;;3.23;;
24277;SDS011;12394;42.692;23.314;2023-12-07T12:58:50;5.00;;;3.23;;
24277;SDS011;12394;42.692;23.314;2023-12-07T13:01:16;7.57;;;3.30;;
24277;SDS011;12394;42.692;23.314;2023-12-07T13:03:43;6.73;;;4.83;;
24277;SDS011;12394;42.692;23.314;2023-12-07T13:06:11;5.37;;;3.60;;
24277;SDS011;12394;42.692;23.314;2023-12-07T13:08:37;4.97;;;3.43;;
24277;SDS011;12394;42.692;23.314;2023-12-07T13:11:04;11.53;;;8.43;;
24277;SDS011;12394;42.692;23.314;2023-12-07T13:13:30;3.70;;;3.30;;
24277;SDS011;12394;42.692;23.314;2023-12-07T13:15:56;3.40;;;3.07;;
24277;SDS011;12394;42.692;23.314;2023-12-07T13:18:21;5.00;;;3.40;;
24277;SDS011;12394;42.692;23.314;2023-12-07T13:20:47;3.53;;;3.00;;
24277;SDS011;12394;42.692;23.314;2023-12-07T13:23:12;6.20;;;4.20;;
24277;SDS011;12394;42.692;23.314;2023-12-07T13:25:38;6.03;;;4.17;;
24277;SDS011;12394;42.692;23.314;2023-12-07T13:28:06;4.97;;;3.93;;
24277;SDS011;12394;42.692;23.314;2023-12-07T13:30:34;5.93;;;4.37;;
24277;SDS011;12394;42.692;23.314;2023-12-07T13:33:01;5.27;;;4.00;;
24277;SDS011;12394;42.692;23.314;2023-12-07T13:35:28;7.97;;;3.80;;
24277;SDS011;12394;42.692;23.314;2023-12-07T13:37:54;4.90;;;3.60;;
24277;SDS011;12394;42.692;23.314;2023-12-07T13:40:20;4.80;;;3.60;;
24277;SDS011;12394;42.692;23.314;2023-12-07T13:42:47;4.50;;;3.63;;
24277;SDS011;12394;42.692;23.314;2023-12-07T13:45:21;5.07;;;4.00;;
24277;SDS011;12394;42.692;23.314;2023-12-07T13:47:48;4.17;;;3.70;;
24277;SDS011;12394;42.692;23.314;2023-12-07T13:50:14;4.67;;;3.50;;
24277;SDS011;12394;42.692;23.314;2023-12-07T13:52:40;4.53;;;3.80;;
24277;SDS011;12394;42.692;23.314;2023-12-07T13:55:06;5.23;;;3.73;;
24277;SDS011;12394;42.692;23.314;2023-12-07T13:57:36;3.90;;;3.53;;
24277;SDS011;12394;42.692;23.314;2023-12-07T14:00:02;4.43;;;3.80;;
24277;SDS011;12394;42.692;23.314;2023-12-07T14:02:28;6.50;;;4.03;;
24277;SDS011;12394;42.692;23.314;2023-12-07T14:04:54;7.93;;;4.80;;
24277;SDS011;12394;42.692;23.314;2023-12-07T14:07:20;4.83;;;4.00;;
24277;SDS011;12394;42.692;23.314;2023-12-07T14:09:50;4.70;;;4.00;;
24277;SDS011;12394;42.692;23.314;2023-12-07T14:12:37;5.13;;;4.23;;
24277;SDS011;12394;42.692;23.314;2023-12-07T14:15:09;5.47;;;4.10;;
24277;SDS011;12394;42.692;23.314;2023-12-07T14:18:00;6.83;;;4.73;;
24277;SDS011;12394;42.692;23.314;2023-12-07T14:20:28;7.23;;;4.70;;
24277;SDS011;12394;42.692;23.314;2023-12-07T14:22:56;7.33;;;4.93;;
24277;SDS011;12394;42.692;23.314;2023-12-07T14:25:22;7.17;;;4.47;;
24277;SDS011;12394;42.692;23.314;2023-12-07T14:27:48;7.10;;;4.60;;